Time;durP1;ratioP1;P1;durP2;ratioP2;P2;SDS_P1;SDS_P2;PMS_P1;PMS_P2;Temp;Humidity;BMP_temperature;BMP_pressure;BME280_temperature;BME280_humidity;BME280_pressure;Samples;Min_cycle;Max_cycle;Signal;HPM_P1;HPM_P2
2021/09/05 07:32:19;;;;;;;7.40;6.70;;;;;;;;;;6265831;23;20028;-83
2021/09/05 07:34:52;;;;;;;7.63;6.82;;;;;;;;;;6217862;23;20015;-83
2021/09/05 07:37:19;;;;;;;11.88;6.80;;;;;;;;;;6263256;23;20000;-83
2021/09/05 07:39:45;;;;;;;8.57;6.85;;;;;;;;;;6268325;23;20048;-83
2021/09/05 07:42:25;;;;;;;7.50;6.78;;;;;;;;;;6264287;23;20000;-82
2021/09/05 07:44:50;;;;;;;6.70;5.85;;;;;;;;;;6212754;23;20006;-82
2021/09/05 07:47:18;;;;;;;7.13;6.22;;;;;;;;;;6264933;23;19992;-83
2021/09/05 07:49:45;;;;;;;9.85;6.43;;;;;;;;;;6209745;23;20000;-82
2021/09/05 07:52:11;;;;;;;7.80;6.10;;;;;;;;;;6267123;23;19996;-83
2021/09/05 07:54:36;;;;;;;7.90;6.80;;;;;;;;;;6263587;23;20031;-82
2021/09/05 07:57:02;;;;;;;9.70;6.68;;;;;;;;;;6239639;23;19991;-82
2021/09/05 07:59:27;;;;;;;7.00;6.30;;;;;;;;;;6258666;23;19992;-82
2021/09/05 08:01:56;;;;;;;7.25;6.45;;;;;;;;;;6261346;23;20003;-82
2021/09/05 08:04:30;;;;;;;7.47;6.15;;;;;;;;;;6261125;23;19999;-83
2021/09/05 08:06:56;;;;;;;8.93;5.82;;;;;;;;;;6233719;23;20347;-82
2021/09/05 08:09:31;;;;;;;6.63;5.93;;;;;;;;;;6263700;23;20000;-82
2021/09/05 08:11:57;;;;;;;12.77;6.00;;;;;;;;;;6266584;23;20002;-83
2021/09/05 08:14:22;;;;;;;6.50;5.53;;;;;;;;;;6262481;23;20000;-82
2021/09/05 08:16:52;;;;;;;7.30;5.80;;;;;;;;;;6263570;23;19995;-83
2021/09/05 08:19:20;;;;;;;7.35;5.68;;;;;;;;;;6243179;23;20051;-83
2021/09/05 08:21:45;;;;;;;6.50;5.38;;;;;;;;;;6261148;23;20061;-82
2021/09/05 08:24:11;;;;;;;8.27;6.03;;;;;;;;;;6234000;23;20028;-82
2021/09/05 08:26:37;;;;;;;8.50;5.65;;;;;;;;;;6260082;23;19996;-82
2021/09/05 08:29:06;;;;;;;6.80;5.90;;;;;;;;;;6235214;23;20508;-81
2021/09/05 08:31:31;;;;;;;6.00;5.40;;;;;;;;;;6259884;23;20466;-82
2021/09/05 08:33:58;;;;;;;7.70;6.38;;;;;;;;;;6260516;23;20007;-82
2021/09/05 08:36:24;;;;;;;6.05;5.43;;;;;;;;;;6262149;23;19996;-82
2021/09/05 08:38:49;;;;;;;7.65;6.53;;;;;;;;;;6259825;23;20007;-82
2021/09/05 08:41:16;;;;;;;9.25;5.90;;;;;;;;;;6264724;23;19996;-83
2021/09/05 08:43:45;;;;;;;6.22;5.63;;;;;;;;;;6242766;23;19992;-83
2021/09/05 08:46:12;;;;;;;7.82;6.20;;;;;;;;;;6264218;23;19993;-82
2021/09/05 08:48:39;;;;;;;6.82;5.93;;;;;;;;;;6266272;23;19996;-83
2021/09/05 08:51:05;;;;;;;7.40;5.85;;;;;;;;;;6242163;23;20087;-82
2021/09/05 08:53:31;;;;;;;6.88;6.07;;;;;;;;;;6264516;23;20000;-82
2021/09/05 08:55:57;;;;;;;7.22;5.95;;;;;;;;;;6187132;23;20009;-82
2021/09/05 08:58:22;;;;;;;9.63;5.70;;;;;;;;;;6239883;23;20047;-82
2021/09/05 09:00:49;;;;;;;7.30;5.57;;;;;;;;;;6267642;23;19996;-82
2021/09/05 09:03:25;;;;;;;9.02;5.78;;;;;;;;;;6260481;23;20000;-82
2021/09/05 09:05:57;;;;;;;7.15;5.53;;;;;;;;;;6256092;23;20020;-81
2021/09/05 09:08:23;;;;;;;6.07;5.35;;;;;;;;;;6257315;23;20007;-81
2021/09/05 09:10:58;;;;;;;9.75;6.28;;;;;;;;;;6231856;23;20000;-82
2021/09/05 09:13:42;;;;;;;8.07;6.18;;;;;;;;;;6259689;23;20401;-81
2021/09/05 09:16:13;;;;;;;6.95;6.07;;;;;;;;;;6233991;23;20008;-82
2021/09/05 09:18:43;;;;;;;9.50;6.20;;;;;;;;;;6257204;23;20054;-82
2021/09/05 09:21:11;;;;;;;7.95;6.47;;;;;;;;;;6258335;23;20071;-81
2021/09/05 09:23:38;;;;;;;7.55;6.00;;;;;;;;;;6258491;23;19999;-81
2021/09/05 09:26:13;;;;;;;8.95;6.32;;;;;;;;;;6258899;23;19996;-80
2021/09/05 09:28:48;;;;;;;7.90;6.63;;;;;;;;;;6257187;23;19996;-80
2021/09/05 09:31:27;;;;;;;10.02;6.10;;;;;;;;;;6258082;23;20450;-82
2021/09/05 09:33:57;;;;;;;6.78;6.07;;;;;;;;;;6259432;23;20048;-81
2021/09/05 09:36:24;;;;;;;;;;;;;;;;;;6259617;23;19996;-81
2021/09/05 09:38:57;;;;;;;12.27;9.60;;;;;;;;;;6262217;23;19904;-81
2021/09/05 09:41:29;;;;;;;9.23;7.18;;;;;;;;;;6260710;23;19996;-81
2021/09/05 09:44:00;;;;;;;10.65;7.80;;;;;;;;;;6258663;23;20401;-81
2021/09/05 09:46:28;;;;;;;13.00;11.25;;;;;;;;;;6232776;23;20015;-81
2021/09/05 09:48:55;;;;;;;9.10;6.22;;;;;;;;;;6232469;23;20315;-81
2021/09/05 09:51:22;;;;;;;8.63;6.47;;;;;;;;;;6232099;23;20004;-81
2021/09/05 09:53:51;;;;;;;7.35;5.75;;;;;;;;;;6258339;23;20048;-81
2021/09/05 09:56:17;;;;;;;9.48;5.78;;;;;;;;;;6262709;23;19996;-82
2021/09/05 09:58:45;;;;;;;8.25;6.13;;;;;;;;;;6259974;23;19996;-81
2021/09/05 10:01:14;;;;;;;7.78;5.43;;;;;;;;;;6258965;23;20035;-81
2021/09/05 10:03:41;;;;;;;6.63;5.90;;;;;;;;;;6259252;23;20011;-81
2021/09/05 10:06:07;;;;;;;7.15;6.10;;;;;;;;;;6233167;23;19996;-81
2021/09/05 10:08:35;;;;;;;7.40;5.97;;;;;;;;;;6233445;23;20011;-81
2021/09/05 10:11:01;;;;;;;9.27;5.53;;;;;;;;;;6257994;23;20062;-81
2021/09/05 10:13:31;;;;;;;7.53;6.57;;;;;;;;;;6259894;23;20429;-81
2021/09/05 10:16:00;;;;;;;7.18;6.00;;;;;;;;;;6261463;23;20004;-81
2021/09/05 10:18:27;;;;;;;7.88;6.32;;;;;;;;;;6259825;23;20346;-81
2021/09/05 10:20:57;;;;;;;9.63;6.38;;;;;;;;;;6233605;23;19991;-81
2021/09/05 10:23:31;;;;;;;7.40;5.63;;;;;;;;;;6261345;23;19996;-81
2021/09/05 10:26:05;;;;;;;8.55;6.32;;;;;;;;;;6259532;23;20020;-80
2021/09/05 10:28:48;;;;;;;7.32;6.38;;;;;;;;;;6262676;23;19996;-81
2021/09/05 10:31:26;;;;;;;9.75;8.75;;;;;;;;;;6234501;23;20044;-81
2021/09/05 10:33:53;;;;;;;10.07;5.70;;;;;;;;;;6263118;23;20039;-81
2021/09/05 10:36:21;;;;;;;9.07;5.63;;;;;;;;;;6262394;23;20094;-81
2021/09/05 10:38:47;;;;;;;8.77;6.30;;;;;;;;;;6261660;23;19996;-81
2021/09/05 10:41:19;;;;;;;7.95;6.38;;;;;;;;;;6233356;23;20004;-81
2021/09/05 10:44:22;;;;;;;8.95;6.18;;;;;;;;;;6239342;23;20000;-85
2021/09/05 10:46:51;;;;;;;8.18;6.07;;;;;;;;;;6085417;23;20016;-81
2021/09/05 10:49:38;;;;;;;8.90;5.95;;;;;;;;;;6120216;22;20014;-81
2021/09/05 10:52:56;;;;;;;7.47;6.35;;;;;;;;;;6234395;23;20012;-81
2021/09/05 10:56:04;;;;;;;6.93;5.75;;;;;;;;;;6231519;23;20008;-80
2021/09/05 10:58:45;;;;;;;9.05;6.40;;;;;;;;;;6234023;23;19996;-81
2021/09/05 11:01:11;;;;;;;8.93;6.60;;;;;;;;;;6232979;23;19997;-80
2021/09/05 11:04:14;;;;;;;11.00;6.07;;;;;;;;;;6209534;23;20004;-81
2021/09/05 11:06:50;;;;;;;8.73;5.95;;;;;;;;;;6235152;23;20000;-80
2021/09/05 11:09:24;;;;;;;8.90;6.13;;;;;;;;;;6238969;23;19996;-81
2021/09/05 11:12:00;;;;;;;9.18;6.03;;;;;;;;;;6235006;23;19997;-80
2021/09/05 11:15:12;;;;;;;7.78;6.18;;;;;;;;;;6240015;23;20000;-81
2021/09/05 11:18:05;;;;;;;6.78;6.07;;;;;;;;;;6171077;23;20005;-83
2021/09/05 11:20:54;;;;;;;8.35;5.97;;;;;;;;;;6106246;23;20006;-81
2021/09/05 11:30:23;;;;;;;7.40;5.68;;;;;;;;;;6242881;22;20069;-82
2021/09/05 11:33:44;;;;;;;7.75;5.55;;;;;;;;;;6144463;23;20008;-82
2021/09/05 11:36:36;;;;;;;7.30;5.30;;;;;;;;;;6220921;23;19996;-82
2021/09/05 11:43:05;;;;;;;6.68;5.80;;;;;;;;;;6239502;23;20023;-82
2021/09/05 11:45:43;;;;;;;8.65;5.70;;;;;;;;;;6234889;23;20056;-82
2021/09/05 11:48:55;;;;;;;9.55;5.20;;;;;;;;;;6236238;23;20001;-83
2021/09/05 11:51:43;;;;;;;6.00;5.40;;;;;;;;;;6209486;23;20005;-83
2021/09/05 11:54:09;;;;;;;8.05;5.97;;;;;;;;;;6209504;23;20020;-82
2021/09/05 12:09:04;;;;;;;13.18;5.82;;;;;;;;;;6232431;23;20025;-84
2021/09/05 12:11:30;;;;;;;8.75;5.78;;;;;;;;;;6222383;23;20020;-85
2021/09/05 12:13:55;;;;;;;9.15;5.25;;;;;;;;;;6217861;23;20442;-86
2021/09/05 12:19:25;;;;;;;8.68;5.18;;;;;;;;;;6224755;23;20055;-87
2021/09/05 12:28:35;;;;;;;7.63;4.97;;;;;;;;;;6217268;23;20146;-87
2021/09/05 12:31:04;;;;;;;7.68;5.78;;;;;;;;;;6213113;23;20040;-86
2021/09/05 12:33:32;;;;;;;8.25;5.30;;;;;;;;;;6186163;23;20004;-88
2021/09/05 12:36:16;;;;;;;5.45;4.70;;;;;;;;;;6213673;23;20001;-88
2021/09/05 12:38:54;;;;;;;6.75;4.47;;;;;;;;;;6214101;23;20063;-87
2021/09/05 12:41:22;;;;;;;5.18;4.40;;;;;;;;;;6211790;23;20007;-87
2021/09/05 12:43:50;;;;;;;8.65;4.63;;;;;;;;;;6211798;23;20001;-87
2021/09/05 12:46:18;;;;;;;8.50;6.00;;;;;;;;;;6212403;23;20016;-88
2021/09/05 12:48:48;;;;;;;5.30;4.75;;;;;;;;;;6184077;23;20005;-87
2021/09/05 12:51:27;;;;;;;6.47;4.68;;;;;;;;;;6185612;23;19996;-89
2021/09/05 12:54:06;;;;;;;8.50;6.47;;;;;;;;;;6185807;23;20428;-87
2021/09/05 12:56:31;;;;;;;6.78;4.38;;;;;;;;;;6186187;23;20005;-88
2021/09/05 12:58:57;;;;;;;6.53;4.75;;;;;;;;;;6186754;23;20056;-88
2021/09/05 13:01:28;;;;;;;7.15;4.88;;;;;;;;;;6213579;23;20024;-88
2021/09/05 13:03:55;;;;;;;6.68;4.43;;;;;;;;;;6186113;23;20047;-87
2021/09/05 13:06:21;;;;;;;6.90;4.88;;;;;;;;;;6186391;23;20088;-86
2021/09/05 13:08:48;;;;;;;5.20;4.30;;;;;;;;;;6213079;23;20012;-86
2021/09/05 13:11:18;;;;;;;5.25;4.53;;;;;;;;;;6213757;23;20083;-86
2021/09/05 13:13:47;;;;;;;4.60;4.15;;;;;;;;;;6186588;23;20457;-85
2021/09/05 13:16:14;;;;;;;5.03;4.32;;;;;;;;;;6213556;23;20001;-86
2021/09/05 13:18:41;;;;;;;5.13;4.53;;;;;;;;;;6213324;23;20047;-85
2021/09/05 13:21:07;;;;;;;4.97;4.43;;;;;;;;;;6213890;23;20001;-86
2021/09/05 13:23:33;;;;;;;5.32;4.65;;;;;;;;;;6189163;23;20008;-86
2021/09/05 13:25:59;;;;;;;5.05;4.30;;;;;;;;;;6214383;23;20031;-85
2021/09/05 13:28:25;;;;;;;5.25;4.03;;;;;;;;;;6188757;23;20009;-85
2021/09/05 13:30:51;;;;;;;7.50;4.55;;;;;;;;;;6215659;23;20000;-86
2021/09/05 13:33:16;;;;;;;6.97;4.28;;;;;;;;;;6188623;23;19996;-85
2021/09/05 13:35:42;;;;;;;6.60;4.22;;;;;;;;;;6215740;23;20009;-85
2021/09/05 13:38:08;;;;;;;5.05;4.38;;;;;;;;;;6189431;23;20374;-85
2021/09/05 13:40:33;;;;;;;5.93;4.30;;;;;;;;;;6215617;23;20004;-85
2021/09/05 13:42:59;;;;;;;6.88;4.35;;;;;;;;;;6215683;23;20001;-86
2021/09/05 13:45:25;;;;;;;6.10;4.72;;;;;;;;;;6215099;23;19992;-86
2021/09/05 13:47:50;;;;;;;7.00;4.53;;;;;;;;;;6214777;23;20003;-85
2021/09/05 13:50:16;;;;;;;6.00;4.55;;;;;;;;;;6215018;23;20004;-85
2021/09/05 13:52:41;;;;;;;7.72;4.03;;;;;;;;;;6215042;23;20011;-86
2021/09/05 13:55:07;;;;;;;6.63;4.70;;;;;;;;;;6187675;23;20439;-85
2021/09/05 13:57:33;;;;;;;5.10;4.40;;;;;;;;;;6214367;23;20429;-85
2021/09/05 13:59:58;;;;;;;5.10;4.40;;;;;;;;;;6215193;23;20063;-85
2021/09/05 14:02:25;;;;;;;5.15;4.07;;;;;;;;;;6187675;23;20012;-84
2021/09/05 14:04:51;;;;;;;5.82;4.25;;;;;;;;;;6188194;23;19992;-85
2021/09/05 14:07:18;;;;;;;5.05;4.13;;;;;;;;;;6188843;23;20076;-86
2021/09/05 14:09:44;;;;;;;5.80;3.90;;;;;;;;;;6188220;23;20016;-86
2021/09/05 14:12:16;;;;;;;5.78;4.32;;;;;;;;;;6188478;23;20505;-85
2021/09/05 14:14:42;;;;;;;4.80;4.07;;;;;;;;;;6186981;23;20328;-85
2021/09/05 14:17:09;;;;;;;6.82;4.50;;;;;;;;;;6187878;23;20031;-85
2021/09/05 14:19:35;;;;;;;5.25;4.05;;;;;;;;;;6215258;23;20008;-84
2021/09/05 14:22:01;;;;;;;6.97;4.10;;;;;;;;;;6214732;23;20026;-85
2021/09/05 14:24:28;;;;;;;5.75;4.00;;;;;;;;;;6214036;23;19997;-85
2021/09/05 14:26:57;;;;;;;5.30;4.28;;;;;;;;;;6214372;23;20001;-85
2021/09/05 14:29:29;;;;;;;4.93;4.07;;;;;;;;;;6187891;23;20000;-85
2021/09/05 14:34:57;;;;;;;9.35;4.65;;;;;;;;;;6150971;23;20102;-84
2021/09/05 14:48:30;;;;;;;7.65;3.90;;;;;;;;;;6152320;23;20033;-86
2021/09/05 14:55:55;;;;;;;7.05;3.78;;;;;;;;;;6151518;23;20135;-84
2021/09/05 14:58:23;;;;;;;7.03;3.60;;;;;;;;;;6151340;23;20025;-85
2021/09/05 15:00:57;;;;;;;4.38;3.72;;;;;;;;;;6153199;23;20009;-84
2021/09/05 15:11:20;;;;;;;4.60;3.67;;;;;;;;;;6161569;23;20128;-85
2021/09/05 15:13:45;;;;;;;7.30;3.92;;;;;;;;;;6156820;23;20044;-84
2021/09/05 15:16:11;;;;;;;5.65;3.35;;;;;;;;;;6183510;23;20005;-85
2021/09/05 15:18:36;;;;;;;4.82;3.78;;;;;;;;;;6183198;23;20059;-84
2021/09/05 15:21:07;;;;;;;4.00;3.28;;;;;;;;;;6181739;23;20027;-84
2021/09/05 15:23:39;;;;;;;4.15;3.67;;;;;;;;;;6181851;23;20009;-85
2021/09/05 15:26:17;;;;;;;5.22;3.30;;;;;;;;;;6183577;23;19997;-85
2021/09/05 15:31:44;;;;;;;7.28;3.83;;;;;;;;;;6183731;23;20095;-84
2021/09/05 15:34:28;;;;;;;6.70;3.50;;;;;;;;;;6184119;23;20001;-85
2021/09/05 15:53:22;;;;;;;4.22;3.30;;;;;;;;;;6183834;23;20005;-85
2021/09/05 15:55:47;;;;;;;4.43;3.67;;;;;;;;;;6184037;23;20005;-86
2021/09/05 15:58:19;;;;;;;4.03;3.35;;;;;;;;;;6183377;23;20058;-84
2021/09/05 16:00:51;;;;;;;9.75;3.50;;;;;;;;;;6182720;23;19997;-84
2021/09/05 16:06:10;;;;;;;6.13;4.00;;;;;;;;;;6184056;23;20045;-83
2021/09/05 16:16:49;;;;;;;5.88;4.10;;;;;;;;;;6121742;23;20012;-84
2021/09/05 16:19:16;;;;;;;5.35;3.83;;;;;;;;;;6121599;23;20077;-83
2021/09/05 16:21:42;;;;;;;14.32;4.13;;;;;;;;;;6122294;23;20046;-83
2021/09/05 16:24:08;;;;;;;5.80;3.85;;;;;;;;;;6097446;23;20397;-83
2021/09/05 16:26:34;;;;;;;6.32;3.33;;;;;;;;;;6122220;23;20009;-83
2021/09/05 16:29:03;;;;;;;5.95;3.72;;;;;;;;;;6096254;23;20006;-83
2021/09/05 16:31:37;;;;;;;5.95;3.42;;;;;;;;;;6120547;23;20010;-84
2021/09/05 16:34:06;;;;;;;9.27;3.75;;;;;;;;;;6120238;23;20022;-83
2021/09/05 16:41:59;;;;;;;7.10;5.82;;;;;;;;;;6122056;23;20016;-84
2021/09/05 16:44:24;;;;;;;6.07;5.47;;;;;;;;;;6121428;23;20005;-83
2021/09/05 16:46:50;;;;;;;3.95;3.55;;;;;;;;;;6121155;23;20010;-83
2021/09/05 16:49:15;;;;;;;5.05;4.32;;;;;;;;;;6097121;23;20002;-83
2021/09/05 16:51:41;;;;;;;4.97;4.00;;;;;;;;;;6187520;23;20008;-84
2021/09/05 16:54:06;;;;;;;7.05;3.70;;;;;;;;;;6213181;23;20001;-85
2021/09/05 16:56:32;;;;;;;3.88;3.35;;;;;;;;;;6188411;23;20112;-84
2021/09/05 16:58:57;;;;;;;5.03;3.55;;;;;;;;;;6189619;23;20004;-85
2021/09/05 17:01:23;;;;;;;5.78;3.20;;;;;;;;;;6216550;23;20007;-85
2021/09/05 17:03:49;;;;;;;4.88;3.38;;;;;;;;;;6215966;23;19996;-85
2021/09/05 17:06:15;;;;;;;5.07;3.70;;;;;;;;;;6215010;23;19992;-84
2021/09/05 17:08:40;;;;;;;4.88;3.58;;;;;;;;;;6215910;23;20016;-84
2021/09/05 17:11:05;;;;;;;4.57;3.67;;;;;;;;;;6189177;23;20001;-85
2021/09/05 17:13:31;;;;;;;4.07;3.38;;;;;;;;;;6216276;23;20001;-84
2021/09/05 17:16:00;;;;;;;6.53;3.63;;;;;;;;;;6189777;23;20016;-84
2021/09/05 17:18:26;;;;;;;5.13;3.60;;;;;;;;;;6188670;23;20001;-84
2021/09/05 17:20:52;;;;;;;5.95;4.10;;;;;;;;;;6188068;23;20012;-85
2021/09/05 17:23:17;;;;;;;8.00;3.97;;;;;;;;;;6215619;23;20441;-84
2021/09/05 17:25:42;;;;;;;5.95;3.88;;;;;;;;;;6188936;23;20538;-84
2021/09/05 17:28:08;;;;;;;6.13;4.13;;;;;;;;;;6216056;23;20067;-85
2021/09/05 17:30:33;;;;;;;7.45;4.07;;;;;;;;;;6189749;23;20004;-84
2021/09/05 17:33:01;;;;;;;5.57;3.97;;;;;;;;;;6215385;23;20031;-85
2021/09/05 17:35:29;;;;;;;6.05;4.03;;;;;;;;;;6188343;23;20451;-84
2021/09/05 17:37:55;;;;;;;8.85;4.25;;;;;;;;;;6215470;23;20068;-86
2021/09/05 17:40:20;;;;;;;4.82;4.18;;;;;;;;;;6188778;23;20039;-83
2021/09/05 17:42:46;;;;;;;8.15;6.45;;;;;;;;;;6214274;23;20011;-85
2021/09/05 17:45:11;;;;;;;7.82;5.68;;;;;;;;;;6187523;23;20453;-84
2021/09/05 17:47:38;;;;;;;9.30;5.80;;;;;;;;;;6210441;23;19997;-84
2021/09/05 17:50:05;;;;;;;14.43;5.15;;;;;;;;;;6186681;23;20055;-84
2021/09/05 17:52:31;;;;;;;9.50;4.50;;;;;;;;;;6212093;23;20083;-86
2021/09/05 17:54:56;;;;;;;5.43;4.53;;;;;;;;;;6212498;23;20427;-86
2021/09/05 17:57:22;;;;;;;7.80;4.65;;;;;;;;;;6214654;23;20016;-88
2021/09/05 17:59:47;;;;;;;5.85;4.53;;;;;;;;;;6188556;23;20031;-87
2021/09/05 18:02:13;;;;;;;7.25;5.00;;;;;;;;;;6189300;23;20051;-87
2021/09/05 18:04:38;;;;;;;6.10;5.22;;;;;;;;;;6189141;23;20008;-88
2021/09/05 18:07:04;;;;;;;7.10;4.70;;;;;;;;;;6213942;23;20001;-88
2021/09/05 18:09:30;;;;;;;5.65;4.53;;;;;;;;;;6215781;23;20078;-88
2021/09/05 18:11:55;;;;;;;10.18;4.38;;;;;;;;;;6189244;23;20427;-87
2021/09/05 18:14:21;;;;;;;9.25;4.55;;;;;;;;;;6215481;23;20001;-87
2021/09/05 18:16:46;;;;;;;12.07;4.70;;;;;;;;;;6189006;23;20004;-87
2021/09/05 18:19:12;;;;;;;8.43;4.78;;;;;;;;;;6215605;23;20003;-86
2021/09/05 18:21:39;;;;;;;7.90;4.50;;;;;;;;;;6215092;23;20004;-88
2021/09/05 18:24:08;;;;;;;7.57;4.45;;;;;;;;;;6215350;23;20000;-88
2021/09/05 18:26:33;;;;;;;11.38;4.95;;;;;;;;;;6188795;23;20000;-88
2021/09/05 18:28:59;;;;;;;6.80;4.60;;;;;;;;;;6188427;23;20008;-88
2021/09/05 18:31:25;;;;;;;8.70;4.68;;;;;;;;;;6188827;23;20000;-87
2021/09/05 18:33:50;;;;;;;8.00;4.55;;;;;;;;;;6215364;23;20075;-88
2021/09/05 18:36:17;;;;;;;9.18;4.85;;;;;;;;;;6214357;23;20005;-88
2021/09/05 18:38:43;;;;;;;6.53;4.25;;;;;;;;;;6188768;23;20001;-88
2021/09/05 18:41:09;;;;;;;5.82;4.85;;;;;;;;;;6188409;23;20401;-88
2021/09/05 18:43:35;;;;;;;9.52;5.05;;;;;;;;;;6215362;23;20003;-88
2021/09/05 18:46:02;;;;;;;6.38;4.90;;;;;;;;;;6214648;23;20001;-88
2021/09/05 18:48:28;;;;;;;7.78;4.90;;;;;;;;;;6215296;23;20083;-88
2021/09/05 18:50:53;;;;;;;7.25;4.68;;;;;;;;;;6214629;23;20032;-88
2021/09/05 18:53:19;;;;;;;6.78;4.80;;;;;;;;;;6188490;23;20024;-88
2021/09/05 18:55:44;;;;;;;7.90;4.60;;;;;;;;;;6188504;23;20004;-88
2021/09/05 18:58:10;;;;;;;7.25;4.60;;;;;;;;;;6214964;23;20000;-88
2021/09/05 19:00:35;;;;;;;5.85;4.78;;;;;;;;;;6188572;23;20000;-88
2021/09/05 19:03:01;;;;;;;6.43;4.80;;;;;;;;;;6188519;23;20345;-85
2021/09/05 19:05:28;;;;;;;9.18;4.80;;;;;;;;;;6214670;23;20067;-86
2021/09/05 19:07:55;;;;;;;7.03;4.82;;;;;;;;;;6188668;23;20000;-85
2021/09/05 19:10:21;;;;;;;6.43;4.85;;;;;;;;;;6188191;23;20004;-85
2021/09/05 19:12:51;;;;;;;8.35;4.75;;;;;;;;;;6215039;23;20000;-84
2021/09/05 19:15:16;;;;;;;8.50;4.70;;;;;;;;;;6188494;23;20001;-85
2021/09/05 19:17:41;;;;;;;6.20;5.38;;;;;;;;;;6188517;23;20007;-84
2021/09/05 19:20:08;;;;;;;5.90;4.53;;;;;;;;;;6187520;23;20011;-84
2021/09/05 19:22:33;;;;;;;7.50;5.00;;;;;;;;;;6188809;23;20054;-85
2021/09/05 19:24:59;;;;;;;9.80;5.55;;;;;;;;;;6189990;23;20001;-84
2021/09/05 19:27:24;;;;;;;5.65;4.70;;;;;;;;;;6191873;23;20026;-84
2021/09/05 19:29:50;;;;;;;8.23;5.38;;;;;;;;;;6218509;23;20022;-84
2021/09/05 19:32:15;;;;;;;7.45;5.50;;;;;;;;;;6192938;23;20002;-84
2021/09/05 19:34:41;;;;;;;7.30;5.20;;;;;;;;;;6193036;23;20090;-83
2021/09/05 19:37:06;;;;;;;7.93;5.20;;;;;;;;;;6193553;23;19997;-84
2021/09/05 19:39:32;;;;;;;6.95;5.05;;;;;;;;;;6193378;23;20054;-82
2021/09/05 19:41:58;;;;;;;7.60;5.03;;;;;;;;;;6172757;23;20012;-81
2021/09/05 19:44:24;;;;;;;7.10;5.03;;;;;;;;;;6199573;23;20010;-81
2021/09/05 21:56:52;;;;;;;8.43;5.55;;;;;;;;;;6255181;22;20008;-84
2021/09/05 21:59:25;;;;;;;7.30;5.43;;;;;;;;;;6239645;22;20016;-85
2021/09/05 22:02:47;;;;;;;9.25;5.47;;;;;;;;;;6284278;22;20022;-85
2021/09/05 22:06:12;;;;;;;9.02;5.70;;;;;;;;;;6237098;23;20017;-86
2021/09/05 22:09:30;;;;;;;10.18;6.32;;;;;;;;;;6237461;23;20076;-86
2021/09/05 22:12:35;;;;;;;6.32;5.35;;;;;;;;;;6243303;22;20585;-87
2021/09/05 22:15:49;;;;;;;6.95;5.90;;;;;;;;;;6242836;23;19991;-86
2021/09/05 22:39:51;;;;;;;8.75;6.47;;;;;;;;;;6303325;22;20014;-87
2021/09/05 22:43:17;;;;;;;8.13;6.13;;;;;;;;;;6252113;22;19999;-87
2021/09/05 22:46:46;;;;;;;6.80;6.03;;;;;;;;;;6188656;23;19985;-86
2021/09/05 22:49:56;;;;;;;7.88;6.13;;;;;;;;;;6242479;23;20001;-86
2021/09/05 22:53:30;;;;;;;8.65;5.50;;;;;;;;;;6240840;23;19989;-86
2021/09/05 22:56:35;;;;;;;6.97;5.72;;;;;;;;;;6117879;23;19997;-86
2021/09/05 23:00:02;;;;;;;7.82;5.78;;;;;;;;;;6180484;23;20020;-87
2021/09/05 23:02:53;;;;;;;6.90;5.63;;;;;;;;;;6155953;23;20042;-86
2021/09/05 23:05:48;;;;;;;12.32;6.45;;;;;;;;;;6181441;23;20004;-87
2021/09/05 23:08:24;;;;;;;9.45;6.00;;;;;;;;;;6180091;23;20032;-86
2021/09/05 23:11:29;;;;;;;8.63;6.18;;;;;;;;;;6169992;23;19993;-86
2021/09/05 23:14:43;;;;;;;7.78;6.03;;;;;;;;;;6180983;23;19989;-86
2021/09/05 23:17:11;;;;;;;8.38;5.32;;;;;;;;;;6180600;23;20013;-85
2021/09/05 23:35:44;;;;;;;7.75;6.47;;;;;;;;;;6294333;22;20020;-86
2021/09/05 23:38:36;;;;;;;11.63;6.85;;;;;;;;;;6177013;23;20024;-86
2021/09/05 23:41:38;;;;;;;9.77;6.70;;;;;;;;;;6107903;23;19993;-86
2021/09/05 23:44:49;;;;;;;6.97;6.10;;;;;;;;;;6166061;23;19998;-87
2021/09/05 23:47:30;;;;;;;7.90;6.72;;;;;;;;;;6129524;23;20001;-87
